sensor_id;sensor_type;location;lat;lon;timestamp;P1;durP1;ratioP1;P2;durP2;ratioP2
65368;SDS011;51970;53.484;49.488;2023-02-22T00:02:06;9.52;;;5.30;;
65368;SDS011;51970;53.484;49.488;2023-02-22T00:04:49;8.80;;;5.15;;
65368;SDS011;51970;53.484;49.488;2023-02-22T00:07:15;10.05;;;4.97;;
65368;SDS011;51970;53.484;49.488;2023-02-22T00:09:42;8.25;;;4.35;;
65368;SDS011;51970;53.484;49.488;2023-02-22T00:12:08;8.63;;;4.53;;
65368;SDS011;51970;53.484;49.488;2023-02-22T00:14:34;9.10;;;4.65;;
65368;SDS011;51970;53.484;49.488;2023-02-22T00:17:01;11.48;;;4.88;;
65368;SDS011;51970;53.484;49.488;2023-02-22T00:19:29;9.55;;;3.95;;
65368;SDS011;51970;53.484;49.488;2023-02-22T00:21:55;11.70;;;6.22;;
65368;SDS011;51970;53.484;49.488;2023-02-22T00:24:22;12.15;;;5.82;;
65368;SDS011;51970;53.484;49.488;2023-02-22T00:26:52;9.73;;;5.03;;
65368;SDS011;51970;53.484;49.488;2023-02-22T00:29:22;10.38;;;5.38;;
65368;SDS011;51970;53.484;49.488;2023-02-22T00:31:49;13.73;;;5.93;;
65368;SDS011;51970;53.484;49.488;2023-02-22T00:34:15;8.93;;;4.72;;
65368;SDS011;51970;53.484;49.488;2023-02-22T00:36:47;10.15;;;5.22;;
65368;SDS011;51970;53.484;49.488;2023-02-22T00:39:14;13.40;;;5.25;;
65368;SDS011;51970;53.484;49.488;2023-02-22T00:41:41;12.32;;;8.68;;
65368;SDS011;51970;53.484;49.488;2023-02-22T00:44:07;12.65;;;5.82;;
65368;SDS011;51970;53.484;49.488;2023-02-22T00:46:33;9.88;;;5.50;;
65368;SDS011;51970;53.484;49.488;2023-02-22T00:48:59;11.85;;;4.95;;
65368;SDS011;51970;53.484;49.488;2023-02-22T00:51:25;9.68;;;4.78;;
65368;SDS011;51970;53.484;49.488;2023-02-22T00:53:51;9.40;;;4.75;;
65368;SDS011;51970;53.484;49.488;2023-02-22T00:56:17;11.95;;;6.43;;
65368;SDS011;51970;53.484;49.488;2023-02-22T00:58:44;13.32;;;5.03;;
65368;SDS011;51970;53.484;49.488;2023-02-22T01:01:11;13.40;;;5.47;;
65368;SDS011;51970;53.484;49.488;2023-02-22T01:03:37;14.52;;;8.45;;
65368;SDS011;51970;53.484;49.488;2023-02-22T01:06:06;12.25;;;5.72;;
65368;SDS011;51970;53.484;49.488;2023-02-22T01:08:32;10.10;;;4.90;;
65368;SDS011;51970;53.484;49.488;2023-02-22T01:10:58;14.25;;;5.57;;
65368;SDS011;51970;53.484;49.488;2023-02-22T01:13:24;9.57;;;5.05;;
65368;SDS011;51970;53.484;49.488;2023-02-22T01:15:50;10.60;;;4.80;;
65368;SDS011;51970;53.484;49.488;2023-02-22T01:18:16;11.05;;;6.72;;
65368;SDS011;51970;53.484;49.488;2023-02-22T01:20:42;12.48;;;5.88;;
65368;SDS011;51970;53.484;49.488;2023-02-22T01:23:12;11.07;;;5.45;;
65368;SDS011;51970;53.484;49.488;2023-02-22T01:25:39;9.18;;;5.30;;
65368;SDS011;51970;53.484;49.488;2023-02-22T01:28:06;12.70;;;5.03;;
65368;SDS011;51970;53.484;49.488;2023-02-22T01:30:33;13.70;;;5.53;;
65368;SDS011;51970;53.484;49.488;2023-02-22T01:33:01;14.48;;;6.65;;
65368;SDS011;51970;53.484;49.488;2023-02-22T01:35:31;18.48;;;7.22;;
65368;SDS011;51970;53.484;49.488;2023-02-22T01:37:58;15.93;;;5.82;;
65368;SDS011;51970;53.484;49.488;2023-02-22T01:40:29;13.93;;;7.22;;
65368;SDS011;51970;53.484;49.488;2023-02-22T01:42:58;15.82;;;6.53;;
65368;SDS011;51970;53.484;49.488;2023-02-22T01:50:49;10.02;;;5.75;;
65368;SDS011;51970;53.484;49.488;2023-02-22T01:53:19;12.20;;;5.80;;
65368;SDS011;51970;53.484;49.488;2023-02-22T01:55:50;12.27;;;5.50;;
65368;SDS011;51970;53.484;49.488;2023-02-22T01:58:20;11.05;;;4.70;;
65368;SDS011;51970;53.484;49.488;2023-02-22T02:00:48;9.57;;;4.82;;
65368;SDS011;51970;53.484;49.488;2023-02-22T02:03:21;12.98;;;5.22;;
65368;SDS011;51970;53.484;49.488;2023-02-22T02:05:52;9.02;;;4.00;;
65368;SDS011;51970;53.484;49.488;2023-02-22T02:08:43;7.10;;;3.55;;
65368;SDS011;51970;53.484;49.488;2023-02-22T02:11:15;8.18;;;4.38;;
65368;SDS011;51970;53.484;49.488;2023-02-22T02:13:44;12.85;;;8.48;;
65368;SDS011;51970;53.484;49.488;2023-02-22T02:16:11;13.32;;;5.60;;
65368;SDS011;51970;53.484;49.488;2023-02-22T02:18:37;9.65;;;4.55;;
65368;SDS011;51970;53.484;49.488;2023-02-22T02:26:57;8.95;;;4.18;;
65368;SDS011;51970;53.484;49.488;2023-02-22T02:38:01;9.52;;;3.47;;
65368;SDS011;51970;53.484;49.488;2023-02-22T02:40:46;6.40;;;3.83;;
65368;SDS011;51970;53.484;49.488;2023-02-22T02:46:20;5.80;;;2.45;;
65368;SDS011;51970;53.484;49.488;2023-02-22T02:48:56;6.78;;;2.60;;
65368;SDS011;51970;53.484;49.488;2023-02-22T02:51:30;6.03;;;2.63;;
65368;SDS011;51970;53.484;49.488;2023-02-22T02:54:01;6.78;;;3.05;;
65368;SDS011;51970;53.484;49.488;2023-02-22T02:56:28;8.05;;;3.78;;
65368;SDS011;51970;53.484;49.488;2023-02-22T02:58:59;9.13;;;3.75;;
65368;SDS011;51970;53.484;49.488;2023-02-22T03:01:33;11.30;;;4.95;;
65368;SDS011;51970;53.484;49.488;2023-02-22T03:04:19;10.95;;;4.43;;
65368;SDS011;51970;53.484;49.488;2023-02-22T03:07:02;13.65;;;6.03;;
65368;SDS011;51970;53.484;49.488;2023-02-22T03:18:23;7.88;;;4.60;;
65368;SDS011;51970;53.484;49.488;2023-02-22T03:21:12;7.10;;;3.42;;
65368;SDS011;51970;53.484;49.488;2023-02-22T03:24:00;7.85;;;3.58;;
65368;SDS011;51970;53.484;49.488;2023-02-22T03:26:36;7.95;;;4.28;;
65368;SDS011;51970;53.484;49.488;2023-02-22T03:29:10;10.38;;;4.95;;
65368;SDS011;51970;53.484;49.488;2023-02-22T03:31:49;8.35;;;3.53;;
65368;SDS011;51970;53.484;49.488;2023-02-22T03:34:29;9.60;;;4.43;;
65368;SDS011;51970;53.484;49.488;2023-02-22T03:37:02;8.35;;;3.22;;
65368;SDS011;51970;53.484;49.488;2023-02-22T03:39:33;8.70;;;4.75;;
65368;SDS011;51970;53.484;49.488;2023-02-22T03:42:08;9.18;;;3.95;;
65368;SDS011;51970;53.484;49.488;2023-02-22T03:44:50;8.77;;;3.72;;
65368;SDS011;51970;53.484;49.488;2023-02-22T03:48:02;8.50;;;3.55;;
65368;SDS011;51970;53.484;49.488;2023-02-22T03:50:38;8.77;;;4.22;;
65368;SDS011;51970;53.484;49.488;2023-02-22T03:53:32;7.00;;;3.60;;
65368;SDS011;51970;53.484;49.488;2023-02-22T03:56:34;9.32;;;5.38;;
65368;SDS011;51970;53.484;49.488;2023-02-22T03:59:11;11.40;;;5.32;;
65368;SDS011;51970;53.484;49.488;2023-02-22T04:01:42;13.90;;;6.30;;
65368;SDS011;51970;53.484;49.488;2023-02-22T04:04:19;11.90;;;5.60;;
65368;SDS011;51970;53.484;49.488;2023-02-22T04:06:46;13.77;;;9.07;;
65368;SDS011;51970;53.484;49.488;2023-02-22T04:09:16;10.80;;;5.20;;
65368;SDS011;51970;53.484;49.488;2023-02-22T04:11:45;11.60;;;5.43;;
65368;SDS011;51970;53.484;49.488;2023-02-22T04:14:13;10.38;;;4.93;;
65368;SDS011;51970;53.484;49.488;2023-02-22T04:16:39;8.77;;;4.43;;
65368;SDS011;51970;53.484;49.488;2023-02-22T04:19:07;8.45;;;3.72;;
65368;SDS011;51970;53.484;49.488;2023-02-22T04:21:53;9.55;;;4.10;;
65368;SDS011;51970;53.484;49.488;2023-02-22T04:24:45;8.48;;;3.53;;
65368;SDS011;51970;53.484;49.488;2023-02-22T04:27:58;9.95;;;3.92;;
65368;SDS011;51970;53.484;49.488;2023-02-22T04:30:36;9.48;;;4.82;;
65368;SDS011;51970;53.484;49.488;2023-02-22T04:33:08;8.13;;;3.30;;
65368;SDS011;51970;53.484;49.488;2023-02-22T04:35:51;8.82;;;3.75;;
65368;SDS011;51970;53.484;49.488;2023-02-22T04:38:53;7.10;;;3.47;;
65368;SDS011;51970;53.484;49.488;2023-02-22T04:41:25;7.97;;;3.80;;
65368;SDS011;51970;53.484;49.488;2023-02-22T04:43:56;7.15;;;3.30;;
65368;SDS011;51970;53.484;49.488;2023-02-22T04:46:28;7.72;;;4.32;;
65368;SDS011;51970;53.484;49.488;2023-02-22T04:49:30;8.40;;;3.15;;
65368;SDS011;51970;53.484;49.488;2023-02-22T04:51:56;7.05;;;3.45;;
65368;SDS011;51970;53.484;49.488;2023-02-22T04:54:24;8.10;;;3.10;;
65368;SDS011;51970;53.484;49.488;2023-02-22T04:56:55;7.35;;;3.08;;
65368;SDS011;51970;53.484;49.488;2023-02-22T04:59:35;8.23;;;3.63;;
65368;SDS011;51970;53.484;49.488;2023-02-22T05:02:14;6.90;;;3.45;;
65368;SDS011;51970;53.484;49.488;2023-02-22T05:04:49;8.93;;;7.05;;
65368;SDS011;51970;53.484;49.488;2023-02-22T05:07:45;5.78;;;3.28;;
65368;SDS011;51970;53.484;49.488;2023-02-22T05:10:47;8.50;;;3.63;;
65368;SDS011;51970;53.484;49.488;2023-02-22T05:13:15;7.15;;;5.05;;
65368;SDS011;51970;53.484;49.488;2023-02-22T05:16:40;6.65;;;3.25;;
65368;SDS011;51970;53.484;49.488;2023-02-22T05:19:07;6.25;;;2.78;;
65368;SDS011;51970;53.484;49.488;2023-02-22T05:21:33;7.68;;;3.40;;
65368;SDS011;51970;53.484;49.488;2023-02-22T05:24:12;8.85;;;3.83;;
65368;SDS011;51970;53.484;49.488;2023-02-22T05:26:56;5.82;;;3.50;;
65368;SDS011;51970;53.484;49.488;2023-02-22T05:29:50;7.07;;;3.20;;
65368;SDS011;51970;53.484;49.488;2023-02-22T05:32:44;4.68;;;2.38;;
65368;SDS011;51970;53.484;49.488;2023-02-22T05:35:14;5.82;;;2.95;;
65368;SDS011;51970;53.484;49.488;2023-02-22T05:38:20;5.93;;;3.03;;
65368;SDS011;51970;53.484;49.488;2023-02-22T05:40:52;5.30;;;2.75;;
65368;SDS011;51970;53.484;49.488;2023-02-22T05:43:31;6.22;;;3.60;;
65368;SDS011;51970;53.484;49.488;2023-02-22T05:45:59;7.95;;;3.10;;
65368;SDS011;51970;53.484;49.488;2023-02-22T05:48:42;5.93;;;2.85;;
65368;SDS011;51970;53.484;49.488;2023-02-22T05:51:21;6.95;;;2.97;;
65368;SDS011;51970;53.484;49.488;2023-02-22T05:53:58;6.60;;;3.33;;
65368;SDS011;51970;53.484;49.488;2023-02-22T05:56:30;5.38;;;2.97;;
65368;SDS011;51970;53.484;49.488;2023-02-22T05:59:20;7.40;;;3.08;;
65368;SDS011;51970;53.484;49.488;2023-02-22T06:05:12;5.38;;;2.83;;
65368;SDS011;51970;53.484;49.488;2023-02-22T06:08:46;5.63;;;2.88;;
65368;SDS011;51970;53.484;49.488;2023-02-22T06:11:17;5.97;;;2.78;;
65368;SDS011;51970;53.484;49.488;2023-02-22T06:13:51;6.47;;;3.13;;
65368;SDS011;51970;53.484;49.488;2023-02-22T06:17:10;5.03;;;2.35;;
65368;SDS011;51970;53.484;49.488;2023-02-22T06:20:11;6.93;;;3.30;;
65368;SDS011;51970;53.484;49.488;2023-02-22T06:23:00;5.68;;;2.42;;
65368;SDS011;51970;53.484;49.488;2023-02-22T06:26:04;14.68;;;3.10;;
65368;SDS011;51970;53.484;49.488;2023-02-22T06:29:34;5.93;;;2.50;;
65368;SDS011;51970;53.484;49.488;2023-02-22T06:32:08;6.35;;;3.00;;
65368;SDS011;51970;53.484;49.488;2023-02-22T06:35:41;10.73;;;3.15;;
65368;SDS011;51970;53.484;49.488;2023-02-22T06:38:57;5.65;;;3.05;;
65368;SDS011;51970;53.484;49.488;2023-02-22T06:42:26;4.00;;;1.83;;
65368;SDS011;51970;53.484;49.488;2023-02-22T06:45:10;7.65;;;5.88;;
65368;SDS011;51970;53.484;49.488;2023-02-22T06:47:45;7.30;;;3.63;;
65368;SDS011;51970;53.484;49.488;2023-02-22T06:50:37;4.50;;;2.20;;
65368;SDS011;51970;53.484;49.488;2023-02-22T06:53:20;5.47;;;2.45;;
65368;SDS011;51970;53.484;49.488;2023-02-22T06:56:31;5.30;;;1.88;;
65368;SDS011;51970;53.484;49.488;2023-02-22T06:59:37;8.55;;;5.57;;
65368;SDS011;51970;53.484;49.488;2023-02-22T07:02:30;9.13;;;3.67;;
65368;SDS011;51970;53.484;49.488;2023-02-22T07:05:29;6.68;;;3.90;;
65368;SDS011;51970;53.484;49.488;2023-02-22T07:08:10;4.90;;;2.35;;
65368;SDS011;51970;53.484;49.488;2023-02-22T07:12:05;5.60;;;3.15;;
65368;SDS011;51970;53.484;49.488;2023-02-22T07:15:03;6.32;;;2.70;;
65368;SDS011;51970;53.484;49.488;2023-02-22T07:17:37;5.80;;;2.88;;
65368;SDS011;51970;53.484;49.488;2023-02-22T07:20:45;10.45;;;4.85;;
65368;SDS011;51970;53.484;49.488;2023-02-22T07:26:30;5.45;;;2.50;;
65368;SDS011;51970;53.484;49.488;2023-02-22T07:29:31;5.00;;;2.08;;
65368;SDS011;51970;53.484;49.488;2023-02-22T07:32:31;4.43;;;2.28;;
65368;SDS011;51970;53.484;49.488;2023-02-22T07:35:31;5.18;;;2.10;;
65368;SDS011;51970;53.484;49.488;2023-02-22T07:39:20;4.20;;;1.77;;
65368;SDS011;51970;53.484;49.488;2023-02-22T07:42:28;5.85;;;2.85;;
65368;SDS011;51970;53.484;49.488;2023-02-22T07:45:05;8.95;;;8.10;;
65368;SDS011;51970;53.484;49.488;2023-02-22T07:47:39;5.68;;;2.97;;
65368;SDS011;51970;53.484;49.488;2023-02-22T07:51:05;4.57;;;2.95;;
65368;SDS011;51970;53.484;49.488;2023-02-22T07:54:35;6.80;;;2.38;;
65368;SDS011;51970;53.484;49.488;2023-02-22T07:57:53;4.10;;;1.58;;
65368;SDS011;51970;53.484;49.488;2023-02-22T08:01:28;5.13;;;1.98;;
65368;SDS011;51970;53.484;49.488;2023-02-22T08:04:16;4.70;;;2.42;;
65368;SDS011;51970;53.484;49.488;2023-02-22T08:07:05;5.07;;;2.13;;
65368;SDS011;51970;53.484;49.488;2023-02-22T08:10:10;3.63;;;1.77;;
65368;SDS011;51970;53.484;49.488;2023-02-22T08:12:38;4.38;;;1.60;;
65368;SDS011;51970;53.484;49.488;2023-02-22T08:15:07;6.47;;;2.42;;
65368;SDS011;51970;53.484;49.488;2023-02-22T08:17:39;4.97;;;2.20;;
65368;SDS011;51970;53.484;49.488;2023-02-22T08:20:06;6.93;;;3.38;;
65368;SDS011;51970;53.484;49.488;2023-02-22T08:22:33;5.75;;;2.08;;
65368;SDS011;51970;53.484;49.488;2023-02-22T08:25:03;5.07;;;2.60;;
65368;SDS011;51970;53.484;49.488;2023-02-22T08:27:40;4.90;;;2.10;;
65368;SDS011;51970;53.484;49.488;2023-02-22T08:30:11;5.93;;;2.53;;
65368;SDS011;51970;53.484;49.488;2023-02-22T08:32:41;6.72;;;2.65;;
65368;SDS011;51970;53.484;49.488;2023-02-22T08:35:07;7.50;;;2.53;;
65368;SDS011;51970;53.484;49.488;2023-02-22T08:37:34;4.82;;;2.25;;
65368;SDS011;51970;53.484;49.488;2023-02-22T08:40:01;5.35;;;2.50;;
65368;SDS011;51970;53.484;49.488;2023-02-22T08:42:27;4.05;;;2.25;;
65368;SDS011;51970;53.484;49.488;2023-02-22T08:44:54;5.40;;;2.40;;
65368;SDS011;51970;53.484;49.488;2023-02-22T08:47:20;6.18;;;2.85;;
65368;SDS011;51970;53.484;49.488;2023-02-22T08:49:46;5.50;;;2.78;;
65368;SDS011;51970;53.484;49.488;2023-02-22T08:52:12;5.97;;;2.20;;
65368;SDS011;51970;53.484;49.488;2023-02-22T08:54:39;8.27;;;3.08;;
65368;SDS011;51970;53.484;49.488;2023-02-22T08:57:05;8.13;;;6.65;;
65368;SDS011;51970;53.484;49.488;2023-02-22T08:59:31;5.47;;;2.97;;
65368;SDS011;51970;53.484;49.488;2023-02-22T09:01:59;4.82;;;2.30;;
65368;SDS011;51970;53.484;49.488;2023-02-22T09:04:29;6.15;;;2.35;;
65368;SDS011;51970;53.484;49.488;2023-02-22T09:06:57;6.95;;;2.63;;
65368;SDS011;51970;53.484;49.488;2023-02-22T09:09:24;5.55;;;2.58;;
65368;SDS011;51970;53.484;49.488;2023-02-22T09:11:50;4.60;;;2.25;;
65368;SDS011;51970;53.484;49.488;2023-02-22T09:14:17;5.25;;;2.85;;
65368;SDS011;51970;53.484;49.488;2023-02-22T09:16:43;6.63;;;3.92;;
65368;SDS011;51970;53.484;49.488;2023-02-22T09:19:10;4.15;;;2.10;;
65368;SDS011;51970;53.484;49.488;2023-02-22T09:21:38;4.00;;;1.73;;
65368;SDS011;51970;53.484;49.488;2023-02-22T09:24:05;5.15;;;2.25;;
65368;SDS011;51970;53.484;49.488;2023-02-22T09:26:35;4.90;;;2.35;;
65368;SDS011;51970;53.484;49.488;2023-02-22T09:29:06;8.70;;;3.05;;
65368;SDS011;51970;53.484;49.488;2023-02-22T09:31:36;4.07;;;1.77;;
65368;SDS011;51970;53.484;49.488;2023-02-22T09:34:05;5.07;;;2.67;;
65368;SDS011;51970;53.484;49.488;2023-02-22T09:36:41;5.03;;;2.63;;
65368;SDS011;51970;53.484;49.488;2023-02-22T09:39:16;6.28;;;2.42;;
65368;SDS011;51970;53.484;49.488;2023-02-22T09:41:53;7.32;;;3.83;;
65368;SDS011;51970;53.484;49.488;2023-02-22T09:47:25;4.57;;;1.88;;
65368;SDS011;51970;53.484;49.488;2023-02-22T09:50:05;5.30;;;2.25;;
65368;SDS011;51970;53.484;49.488;2023-02-22T09:55:48;6.03;;;2.38;;
65368;SDS011;51970;53.484;49.488;2023-02-22T09:58:38;5.10;;;2.45;;
65368;SDS011;51970;53.484;49.488;2023-02-22T10:06:25;5.40;;;2.72;;
65368;SDS011;51970;53.484;49.488;2023-02-22T10:08:54;5.03;;;2.42;;
65368;SDS011;51970;53.484;49.488;2023-02-22T10:19:47;4.47;;;2.50;;
65368;SDS011;51970;53.484;49.488;2023-02-22T10:25:13;5.50;;;2.28;;
65368;SDS011;51970;53.484;49.488;2023-02-22T10:27:46;3.95;;;1.77;;
65368;SDS011;51970;53.484;49.488;2023-02-22T10:30:22;4.95;;;2.15;;
65368;SDS011;51970;53.484;49.488;2023-02-22T10:35:54;7.25;;;2.78;;
65368;SDS011;51970;53.484;49.488;2023-02-22T10:38:26;5.90;;;3.17;;
65368;SDS011;51970;53.484;49.488;2023-02-22T10:43:39;6.18;;;2.85;;
65368;SDS011;51970;53.484;49.488;2023-02-22T10:46:10;6.97;;;6.20;;
65368;SDS011;51970;53.484;49.488;2023-02-22T10:48:41;6.07;;;3.45;;
65368;SDS011;51970;53.484;49.488;2023-02-22T10:51:11;4.30;;;2.33;;
65368;SDS011;51970;53.484;49.488;2023-02-22T10:53:38;4.85;;;2.28;;
65368;SDS011;51970;53.484;49.488;2023-02-22T10:56:18;5.07;;;2.67;;
65368;SDS011;51970;53.484;49.488;2023-02-22T11:04:02;5.88;;;2.63;;
65368;SDS011;51970;53.484;49.488;2023-02-22T11:06:35;4.90;;;2.05;;
65368;SDS011;51970;53.484;49.488;2023-02-22T11:09:03;7.47;;;3.80;;
65368;SDS011;51970;53.484;49.488;2023-02-22T11:11:32;8.27;;;2.85;;
65368;SDS011;51970;53.484;49.488;2023-02-22T11:13:59;7.00;;;3.25;;
65368;SDS011;51970;53.484;49.488;2023-02-22T11:19:02;7.70;;;3.72;;
65368;SDS011;51970;53.484;49.488;2023-02-22T11:21:55;9.45;;;6.57;;
65368;SDS011;51970;53.484;49.488;2023-02-22T11:24:35;9.00;;;3.28;;
65368;SDS011;51970;53.484;49.488;2023-02-22T11:27:35;7.78;;;3.33;;
65368;SDS011;51970;53.484;49.488;2023-02-22T11:30:07;8.82;;;3.85;;
65368;SDS011;51970;53.484;49.488;2023-02-22T11:32:49;7.47;;;3.78;;
65368;SDS011;51970;53.484;49.488;2023-02-22T11:35:49;5.47;;;2.97;;
65368;SDS011;51970;53.484;49.488;2023-02-22T11:38:30;7.07;;;3.72;;
65368;SDS011;51970;53.484;49.488;2023-02-22T11:41:19;11.02;;;4.78;;
65368;SDS011;51970;53.484;49.488;2023-02-22T11:43:53;12.63;;;3.80;;
65368;SDS011;51970;53.484;49.488;2023-02-22T11:46:41;9.25;;;3.80;;
65368;SDS011;51970;53.484;49.488;2023-02-22T11:49:22;11.60;;;5.72;;
65368;SDS011;51970;53.484;49.488;2023-02-22T11:57:46;12.25;;;5.35;;
65368;SDS011;51970;53.484;49.488;2023-02-22T12:13:49;9.77;;;4.55;;
65368;SDS011;51970;53.484;49.488;2023-02-22T12:16:29;6.80;;;3.28;;
65368;SDS011;51970;53.484;49.488;2023-02-22T12:19:26;12.27;;;5.60;;
65368;SDS011;51970;53.484;49.488;2023-02-22T12:22:07;11.75;;;3.92;;
65368;SDS011;51970;53.484;49.488;2023-02-22T12:24:42;9.18;;;3.88;;
65368;SDS011;51970;53.484;49.488;2023-02-22T12:27:19;9.57;;;4.32;;
65368;SDS011;51970;53.484;49.488;2023-02-22T12:30:35;13.93;;;5.50;;
65368;SDS011;51970;53.484;49.488;2023-02-22T12:33:08;11.90;;;6.85;;
65368;SDS011;51970;53.484;49.488;2023-02-22T12:35:52;9.07;;;4.40;;
65368;SDS011;51970;53.484;49.488;2023-02-22T12:38:30;14.18;;;5.40;;
65368;SDS011;51970;53.484;49.488;2023-02-22T12:43:50;11.20;;;5.43;;
65368;SDS011;51970;53.484;49.488;2023-02-22T12:46:24;12.38;;;5.15;;
65368;SDS011;51970;53.484;49.488;2023-02-22T12:55:03;10.45;;;5.20;;
65368;SDS011;51970;53.484;49.488;2023-02-22T13:00:13;21.77;;;11.43;;
65368;SDS011;51970;53.484;49.488;2023-02-22T13:03:01;12.18;;;6.45;;
65368;SDS011;51970;53.484;49.488;2023-02-22T13:05:42;15.65;;;6.97;;
65368;SDS011;51970;53.484;49.488;2023-02-22T13:11:06;11.95;;;5.28;;
65368;SDS011;51970;53.484;49.488;2023-02-22T13:22:28;12.90;;;5.18;;
65368;SDS011;51970;53.484;49.488;2023-02-22T13:25:03;13.60;;;5.35;;
65368;SDS011;51970;53.484;49.488;2023-02-22T13:30:42;11.23;;;4.85;;
65368;SDS011;51970;53.484;49.488;2023-02-22T13:53:40;17.75;;;7.93;;
65368;SDS011;51970;53.484;49.488;2023-02-22T13:56:24;15.55;;;7.15;;
65368;SDS011;51970;53.484;49.488;2023-02-22T13:58:59;12.02;;;5.35;;
65368;SDS011;51970;53.484;49.488;2023-02-22T14:01:46;18.38;;;7.85;;
65368;SDS011;51970;53.484;49.488;2023-02-22T14:06:52;18.33;;;8.95;;
65368;SDS011;51970;53.484;49.488;2023-02-22T14:17:40;20.33;;;8.73;;
65368;SDS011;51970;53.484;49.488;2023-02-22T14:20:34;14.48;;;6.07;;
65368;SDS011;51970;53.484;49.488;2023-02-22T14:25:50;19.60;;;7.82;;
65368;SDS011;51970;53.484;49.488;2023-02-22T14:28:32;25.33;;;10.32;;
65368;SDS011;51970;53.484;49.488;2023-02-22T14:31:22;17.00;;;7.72;;
65368;SDS011;51970;53.484;49.488;2023-02-22T14:34:04;13.43;;;7.13;;
65368;SDS011;51970;53.484;49.488;2023-02-22T14:36:41;22.95;;;8.93;;
65368;SDS011;51970;53.484;49.488;2023-02-22T14:44:56;17.50;;;8.95;;
65368;SDS011;51970;53.484;49.488;2023-02-22T14:47:55;12.10;;;6.13;;
65368;SDS011;51970;53.484;49.488;2023-02-22T14:50:45;14.93;;;6.97;;
65368;SDS011;51970;53.484;49.488;2023-02-22T14:53:56;17.02;;;6.32;;
65368;SDS011;51970;53.484;49.488;2023-02-22T15:00:19;20.25;;;7.32;;
65368;SDS011;51970;53.484;49.488;2023-02-22T15:02:58;16.98;;;6.35;;
65368;SDS011;51970;53.484;49.488;2023-02-22T15:05:26;15.18;;;7.57;;
65368;SDS011;51970;53.484;49.488;2023-02-22T15:08:04;11.23;;;6.35;;
65368;SDS011;51970;53.484;49.488;2023-02-22T15:10:42;19.52;;;8.43;;
65368;SDS011;51970;53.484;49.488;2023-02-22T15:13:18;17.92;;;8.05;;
65368;SDS011;51970;53.484;49.488;2023-02-22T15:15:58;15.55;;;8.35;;
65368;SDS011;51970;53.484;49.488;2023-02-22T15:18:39;15.95;;;8.20;;
65368;SDS011;51970;53.484;49.488;2023-02-22T15:21:16;14.43;;;6.55;;
65368;SDS011;51970;53.484;49.488;2023-02-22T15:23:46;13.73;;;6.65;;
65368;SDS011;51970;53.484;49.488;2023-02-22T15:26:20;18.83;;;9.63;;
65368;SDS011;51970;53.484;49.488;2023-02-22T15:28:52;11.32;;;5.32;;
65368;SDS011;51970;53.484;49.488;2023-02-22T15:31:29;15.55;;;4.50;;
65368;SDS011;51970;53.484;49.488;2023-02-22T15:34:08;23.60;;;10.00;;
65368;SDS011;51970;53.484;49.488;2023-02-22T15:36:45;12.25;;;5.57;;
65368;SDS011;51970;53.484;49.488;2023-02-22T15:39:19;13.52;;;6.28;;
65368;SDS011;51970;53.484;49.488;2023-02-22T15:42:12;21.42;;;7.90;;
65368;SDS011;51970;53.484;49.488;2023-02-22T15:44:54;14.65;;;8.05;;
65368;SDS011;51970;53.484;49.488;2023-02-22T15:47:25;20.15;;;9.82;;
65368;SDS011;51970;53.484;49.488;2023-02-22T15:50:15;7.20;;;4.28;;
65368;SDS011;51970;53.484;49.488;2023-02-22T15:53:25;20.48;;;8.43;;
65368;SDS011;51970;53.484;49.488;2023-02-22T15:55:57;15.07;;;6.35;;
65368;SDS011;51970;53.484;49.488;2023-02-22T15:58:49;20.45;;;10.63;;
65368;SDS011;51970;53.484;49.488;2023-02-22T16:01:23;11.05;;;5.05;;
65368;SDS011;51970;53.484;49.488;2023-02-22T16:03:55;18.70;;;7.93;;
65368;SDS011;51970;53.484;49.488;2023-02-22T16:09:10;14.00;;;5.85;;
65368;SDS011;51970;53.484;49.488;2023-02-22T16:12:22;13.13;;;6.47;;
65368;SDS011;51970;53.484;49.488;2023-02-22T16:14:51;11.05;;;5.68;;
65368;SDS011;51970;53.484;49.488;2023-02-22T16:19:59;24.17;;;8.75;;
65368;SDS011;51970;53.484;49.488;2023-02-22T16:22:45;12.50;;;5.88;;
65368;SDS011;51970;53.484;49.488;2023-02-22T16:27:50;13.15;;;9.60;;
65368;SDS011;51970;53.484;49.488;2023-02-22T16:31:01;17.20;;;9.15;;
65368;SDS011;51970;53.484;49.488;2023-02-22T16:33:44;19.85;;;8.77;;
65368;SDS011;51970;53.484;49.488;2023-02-22T16:36:44;13.43;;;6.60;;
65368;SDS011;51970;53.484;49.488;2023-02-22T16:41:55;20.02;;;9.27;;
65368;SDS011;51970;53.484;49.488;2023-02-22T16:44:52;20.52;;;8.55;;
65368;SDS011;51970;53.484;49.488;2023-02-22T16:47:24;12.52;;;6.45;;
65368;SDS011;51970;53.484;49.488;2023-02-22T16:50:00;16.90;;;6.75;;
65368;SDS011;51970;53.484;49.488;2023-02-22T16:52:28;16.27;;;5.80;;
65368;SDS011;51970;53.484;49.488;2023-02-22T16:54:54;12.05;;;7.32;;
65368;SDS011;51970;53.484;49.488;2023-02-22T16:57:21;18.52;;;8.18;;
65368;SDS011;51970;53.484;49.488;2023-02-22T17:00:50;19.33;;;9.60;;
65368;SDS011;51970;53.484;49.488;2023-02-22T17:04:40;15.10;;;6.70;;
65368;SDS011;51970;53.484;49.488;2023-02-22T17:07:20;21.20;;;9.82;;
65368;SDS011;51970;53.484;49.488;2023-02-22T17:10:27;21.80;;;7.80;;
65368;SDS011;51970;53.484;49.488;2023-02-22T17:13:42;18.40;;;12.02;;
65368;SDS011;51970;53.484;49.488;2023-02-22T17:16:40;12.90;;;5.95;;
65368;SDS011;51970;53.484;49.488;2023-02-22T17:20:31;19.45;;;7.85;;
65368;SDS011;51970;53.484;49.488;2023-02-22T17:24:01;15.82;;;6.38;;
65368;SDS011;51970;53.484;49.488;2023-02-22T17:26:39;8.00;;;4.22;;
65368;SDS011;51970;53.484;49.488;2023-02-22T17:29:34;10.38;;;8.23;;
65368;SDS011;51970;53.484;49.488;2023-02-22T17:32:38;14.88;;;5.65;;
65368;SDS011;51970;53.484;49.488;2023-02-22T17:35:49;24.17;;;10.73;;
65368;SDS011;51970;53.484;49.488;2023-02-22T17:39:21;18.42;;;9.45;;
65368;SDS011;51970;53.484;49.488;2023-02-22T17:42:06;18.17;;;8.82;;
65368;SDS011;51970;53.484;49.488;2023-02-22T17:45:22;16.52;;;7.43;;
65368;SDS011;51970;53.484;49.488;2023-02-22T17:48:58;15.52;;;6.72;;
65368;SDS011;51970;53.484;49.488;2023-02-22T17:51:53;16.35;;;9.13;;
65368;SDS011;51970;53.484;49.488;2023-02-22T17:54:57;33.90;;;11.52;;
65368;SDS011;51970;53.484;49.488;2023-02-22T17:57:53;19.77;;;9.05;;
65368;SDS011;51970;53.484;49.488;2023-02-22T18:01:37;18.02;;;8.82;;
65368;SDS011;51970;53.484;49.488;2023-02-22T18:04:26;15.98;;;6.38;;
65368;SDS011;51970;53.484;49.488;2023-02-22T18:07:41;14.68;;;7.07;;
65368;SDS011;51970;53.484;49.488;2023-02-22T18:10:52;15.73;;;9.52;;
65368;SDS011;51970;53.484;49.488;2023-02-22T18:14:03;16.88;;;9.85;;
65368;SDS011;51970;53.484;49.488;2023-02-22T18:17:00;10.85;;;4.97;;
65368;SDS011;51970;53.484;49.488;2023-02-22T18:19:32;18.77;;;9.57;;
65368;SDS011;51970;53.484;49.488;2023-02-22T18:22:13;16.02;;;7.35;;
65368;SDS011;51970;53.484;49.488;2023-02-22T18:25:47;8.75;;;4.18;;
65368;SDS011;51970;53.484;49.488;2023-02-22T18:28:41;12.40;;;5.47;;
65368;SDS011;51970;53.484;49.488;2023-02-22T18:32:05;16.10;;;6.60;;
65368;SDS011;51970;53.484;49.488;2023-02-22T18:35:00;15.02;;;6.28;;
65368;SDS011;51970;53.484;49.488;2023-02-22T18:38:15;18.05;;;6.88;;
65368;SDS011;51970;53.484;49.488;2023-02-22T18:41:40;14.98;;;7.57;;
65368;SDS011;51970;53.484;49.488;2023-02-22T18:45:03;10.38;;;6.03;;
65368;SDS011;51970;53.484;49.488;2023-02-22T18:47:54;17.50;;;7.22;;
65368;SDS011;51970;53.484;49.488;2023-02-22T18:50:26;15.73;;;7.10;;